createdAt,value
2023-03-03T00:01:35.853Z,72.00
2023-03-03T00:04:04.128Z,71.35
2023-03-03T00:06:32.611Z,75.80
2023-03-03T00:09:00.922Z,75.60
2023-03-03T00:11:29.221Z,76.22
2023-03-03T00:13:58.175Z,75.72
2023-03-03T00:16:33.568Z,70.65
2023-03-03T00:19:02.355Z,77.13
2023-03-03T00:21:32.052Z,73.65
2023-03-03T00:24:15.885Z,70.00
2023-03-03T00:26:46.026Z,74.13
2023-03-03T00:29:35.835Z,75.05
2023-03-03T00:32:26.286Z,75.00
2023-03-03T00:34:56.354Z,65.57
2023-03-03T00:37:29.122Z,72.93
2023-03-03T00:40:04.654Z,72.05
2023-03-03T00:42:35.537Z,69.30
2023-03-03T00:45:19.864Z,78.85
2023-03-03T00:47:49.558Z,70.65
2023-03-03T00:50:26.567Z,72.43
2023-03-03T00:53:06.660Z,69.90
2023-03-03T00:55:36.649Z,76.45
2023-03-03T00:58:05.613Z,78.72
2023-03-03T01:00:34.399Z,64.05
2023-03-03T01:03:06.576Z,67.80
2023-03-03T01:05:34.919Z,74.40
2023-03-03T01:08:04.101Z,73.38
2023-03-03T01:10:34.802Z,71.20
2023-03-03T01:13:03.312Z,73.93
2023-03-03T01:15:31.685Z,74.85
2023-03-03T01:18:00.017Z,76.28
2023-03-03T01:20:29.643Z,75.35
2023-03-03T01:22:57.841Z,76.03
2023-03-03T01:25:26.093Z,73.15
2023-03-03T01:27:54.473Z,76.10
2023-03-03T01:30:22.762Z,80.75
2023-03-03T01:32:51.090Z,69.93
2023-03-03T01:35:19.669Z,76.38
2023-03-03T01:37:49.696Z,70.03
2023-03-03T01:40:20.888Z,74.38
2023-03-03T01:42:49.378Z,69.97
2023-03-03T01:45:22.842Z,80.97
2023-03-03T01:47:58.336Z,77.78
2023-03-03T01:50:32.893Z,73.60
2023-03-03T01:53:04.733Z,81.15
2023-03-03T01:55:36.082Z,73.93
2023-03-03T01:58:07.472Z,74.60
2023-03-03T02:00:37.964Z,78.40
2023-03-03T02:03:06.527Z,75.75
2023-03-03T02:05:36.296Z,75.45
2023-03-03T02:08:06.445Z,73.32
2023-03-03T02:10:35.661Z,71.05
2023-03-03T02:13:03.972Z,78.93
2023-03-03T02:15:33.538Z,74.65
2023-03-03T02:18:06.138Z,74.78
2023-03-03T02:20:46.700Z,77.57
2023-03-03T02:25:51.496Z,78.03
2023-03-03T02:28:21.415Z,78.30
2023-03-03T02:30:49.666Z,72.50
2023-03-03T02:33:17.914Z,78.75
2023-03-03T02:35:46.221Z,80.72
2023-03-03T02:38:21.012Z,80.82
2023-03-03T02:40:58.746Z,77.63
2023-03-03T02:43:34.380Z,64.60
2023-03-03T02:46:02.864Z,74.10
2023-03-03T02:48:31.230Z,72.38
2023-03-03T02:50:59.564Z,78.60
2023-03-03T02:53:27.842Z,72.00
2023-03-03T02:55:56.122Z,78.32
2023-03-03T02:58:24.472Z,79.50
2023-03-03T03:00:55.416Z,79.55
2023-03-03T03:03:24.066Z,78.75
2023-03-03T03:05:52.480Z,76.00
2023-03-03T03:08:20.977Z,77.03
2023-03-03T03:10:49.305Z,67.18
2023-03-03T03:13:17.570Z,69.95
2023-03-03T03:15:47.339Z,77.97
2023-03-03T03:18:17.497Z,72.22
2023-03-03T03:20:48.338Z,74.00
2023-03-03T03:23:16.833Z,70.03
2023-03-03T03:25:46.592Z,72.25
2023-03-03T03:28:16.045Z,67.88
2023-03-03T03:30:45.803Z,77.28
2023-03-03T03:33:14.445Z,72.78
2023-03-03T03:35:45.786Z,72.97
2023-03-03T03:38:14.686Z,68.03
2023-03-03T03:40:43.410Z,68.13
2023-03-03T03:43:11.683Z,71.55
2023-03-03T03:45:40.214Z,70.30
2023-03-03T03:48:08.492Z,77.68
2023-03-03T03:50:37.029Z,67.38
2023-03-03T03:53:06.687Z,68.75
2023-03-03T03:55:34.973Z,69.40
2023-03-03T03:58:03.204Z,74.30
2023-03-03T04:00:31.482Z,68.40
2023-03-03T04:02:59.746Z,68.32
2023-03-03T04:05:28.559Z,68.57
2023-03-03T04:07:56.816Z,60.33
2023-03-03T04:10:26.412Z,64.38
2023-03-03T04:12:54.683Z,65.60
2023-03-03T04:15:22.914Z,70.55
2023-03-03T04:17:51.253Z,72.88
2023-03-03T04:20:19.556Z,75.05
2023-03-03T04:22:47.916Z,66.32
2023-03-03T04:25:17.670Z,66.55
2023-03-03T04:27:47.496Z,70.15
2023-03-03T04:30:16.974Z,73.57
2023-03-03T04:32:45.762Z,68.53
2023-03-03T04:35:13.984Z,67.22
2023-03-03T04:37:42.180Z,66.30
2023-03-03T04:40:11.879Z,65.93
2023-03-03T04:42:40.163Z,69.78
2023-03-03T04:45:10.795Z,66.00
2023-03-03T04:47:39.029Z,69.10
2023-03-03T04:50:08.764Z,74.93
2023-03-03T04:52:37.016Z,71.27
2023-03-03T04:55:05.931Z,65.20
2023-03-03T04:57:34.142Z,71.75
2023-03-03T05:00:02.916Z,69.28
2023-03-03T05:02:32.497Z,67.63
2023-03-03T05:05:00.750Z,69.72
2023-03-03T05:07:29.033Z,62.20
2023-03-03T05:09:57.374Z,64.88
2023-03-03T05:12:25.819Z,70.97
2023-03-03T05:14:54.045Z,75.05
2023-03-03T05:17:22.313Z,66.53
2023-03-03T05:19:51.922Z,71.47
2023-03-03T05:22:20.174Z,61.78
2023-03-03T05:24:49.363Z,69.50
2023-03-03T05:27:17.767Z,60.50
2023-03-03T05:29:46.664Z,67.10
2023-03-03T05:32:15.007Z,58.15
2023-03-03T05:34:43.222Z,64.20
2023-03-03T05:37:12.744Z,67.78
2023-03-03T05:39:41.052Z,64.50
2023-03-03T05:42:10.229Z,63.42
2023-03-03T05:44:38.691Z,67.55
2023-03-03T05:47:06.929Z,65.10
2023-03-03T05:49:35.185Z,68.80
2023-03-03T05:52:03.654Z,66.63
2023-03-03T05:54:33.334Z,63.60
2023-03-03T05:57:01.575Z,74.43
2023-03-03T05:59:29.850Z,71.60
2023-03-03T06:01:58.128Z,66.50
2023-03-03T06:04:26.359Z,69.63
2023-03-03T06:06:54.649Z,62.67
2023-03-03T06:09:22.885Z,66.15
2023-03-03T06:11:53.459Z,61.63
2023-03-03T06:16:50.132Z,64.15
2023-03-03T06:19:18.363Z,66.57
2023-03-03T06:21:46.576Z,68.80
2023-03-03T06:24:14.911Z,69.13
2023-03-03T06:26:43.349Z,73.28
2023-03-03T06:29:15.298Z,72.65
2023-03-03T06:31:44.783Z,67.93
2023-03-03T06:34:13.036Z,73.28
2023-03-03T06:36:41.377Z,71.78
2023-03-03T06:39:09.578Z,71.95
2023-03-03T06:41:38.261Z,75.65
2023-03-03T06:44:06.568Z,70.60
2023-03-03T06:46:36.247Z,71.65
2023-03-03T06:49:04.723Z,73.50
2023-03-03T06:51:35.930Z,64.07
2023-03-03T06:54:11.392Z,66.22
2023-03-03T06:56:39.741Z,65.57
2023-03-03T06:59:12.952Z,67.13
2023-03-03T07:01:43.496Z,60.28
2023-03-03T07:04:15.537Z,68.68
2023-03-03T07:06:44.056Z,63.03
2023-03-03T07:09:18.962Z,61.58
2023-03-03T07:11:47.324Z,63.08
2023-03-03T07:14:17.893Z,56.47
2023-03-03T07:19:20.573Z,60.80
2023-03-03T07:21:49.123Z,64.85
2023-03-03T07:24:26.813Z,59.83
2023-03-03T07:26:57.617Z,58.90
2023-03-03T07:31:57.819Z,64.05
2023-03-03T07:34:28.917Z,68.07
2023-03-03T07:37:00.059Z,56.55
2023-03-03T07:39:33.277Z,60.67
2023-03-03T07:42:10.653Z,60.00
2023-03-03T07:44:39.276Z,57.50
2023-03-03T07:47:20.107Z,52.95
2023-03-03T07:49:49.542Z,60.72
2023-03-03T07:52:24.912Z,58.70
2023-03-03T07:54:54.206Z,61.42
2023-03-03T07:57:24.916Z,56.78
2023-03-03T07:59:54.699Z,58.40
2023-03-03T08:02:40.339Z,58.13
2023-03-03T08:05:36.640Z,63.10
2023-03-03T08:08:31.721Z,62.63
2023-03-03T08:11:00.959Z,56.03
2023-03-03T08:13:37.762Z,56.10
2023-03-03T08:16:25.888Z,62.78
2023-03-03T08:19:03.561Z,63.35
2023-03-03T08:21:32.488Z,60.42
2023-03-03T08:24:00.850Z,62.45
2023-03-03T08:26:29.179Z,56.30
2023-03-03T08:28:57.529Z,58.40
2023-03-03T08:31:40.364Z,58.72
2023-03-03T08:34:10.664Z,53.00
2023-03-03T08:36:38.966Z,57.33
2023-03-03T08:39:07.263Z,53.70
2023-03-03T08:41:35.535Z,59.85
2023-03-03T08:44:03.959Z,60.85
2023-03-03T08:46:32.305Z,56.58
2023-03-03T08:49:00.637Z,51.83
2023-03-03T08:51:30.548Z,62.05
2023-03-03T08:53:58.841Z,55.00
2023-03-03T08:56:27.489Z,60.70
2023-03-03T08:59:03.389Z,57.42
2023-03-03T09:01:32.869Z,61.78
2023-03-03T09:04:01.301Z,63.15
2023-03-03T09:06:31.183Z,58.95
2023-03-03T09:08:59.581Z,52.65
2023-03-03T09:11:30.039Z,46.13
2023-03-03T09:14:01.734Z,56.90
2023-03-03T09:16:33.186Z,52.03
2023-03-03T09:19:17.274Z,56.95
2023-03-03T09:21:46.941Z,53.65
2023-03-03T09:24:24.546Z,56.87
2023-03-03T09:26:54.914Z,56.85
2023-03-03T09:29:29.146Z,57.63
2023-03-03T09:31:59.369Z,54.63
2023-03-03T09:34:39.038Z,57.22
2023-03-03T09:37:20.001Z,55.72
2023-03-03T09:39:50.354Z,55.00
2023-03-03T09:42:38.783Z,36.30
2023-03-03T09:45:39.689Z,54.53
2023-03-03T09:48:27.639Z,55.40
2023-03-03T09:51:14.378Z,52.85
2023-03-03T09:53:57.185Z,57.40
2023-03-03T09:56:29.445Z,56.35
2023-03-03T09:59:18.910Z,50.40
2023-03-03T10:01:56.832Z,51.22
2023-03-03T10:04:51.178Z,50.03
2023-03-03T10:07:38.216Z,55.53
2023-03-03T10:10:19.458Z,52.40
2023-03-03T10:12:53.729Z,53.13
2023-03-03T10:15:30.397Z,57.67
2023-03-03T10:18:04.517Z,52.42
2023-03-03T10:20:49.604Z,54.97
2023-03-03T10:23:23.378Z,56.05
2023-03-03T10:26:01.350Z,51.42
2023-03-03T10:29:03.792Z,56.70
2023-03-03T10:31:43.705Z,54.13
2023-03-03T10:34:22.337Z,55.10
2023-03-03T10:36:57.316Z,51.90
2023-03-03T10:39:39.801Z,53.33
2023-03-03T10:42:21.039Z,54.65
2023-03-03T10:45:02.204Z,57.35
2023-03-03T10:47:47.690Z,57.70
2023-03-03T10:50:20.576Z,56.97
2023-03-03T10:52:52.014Z,58.13
2023-03-03T10:55:39.637Z,57.30
2023-03-03T10:58:25.479Z,56.55
2023-03-03T11:01:01.479Z,54.50
2023-03-03T11:03:55.230Z,54.08
2023-03-03T11:06:27.592Z,55.72
2023-03-03T11:08:58.724Z,52.38
2023-03-03T11:11:36.512Z,55.40
2023-03-03T11:14:13.595Z,40.55
2023-03-03T11:16:50.232Z,53.22
2023-03-03T11:19:53.641Z,56.00
2023-03-03T11:22:35.937Z,55.90
2023-03-03T11:25:17.048Z,51.88
2023-03-03T11:28:24.098Z,55.78
2023-03-03T11:31:07.746Z,62.95
2023-03-03T11:33:41.412Z,49.88
2023-03-03T11:36:13.326Z,53.17
2023-03-03T11:38:47.946Z,53.97
2023-03-03T11:41:22.830Z,53.50
2023-03-03T11:43:53.120Z,54.42
2023-03-03T11:46:26.713Z,55.92
2023-03-03T11:48:59.799Z,51.83
2023-03-03T11:51:35.590Z,50.08
2023-03-03T11:54:07.184Z,56.53
2023-03-03T11:56:41.229Z,49.53
2023-03-03T11:59:26.853Z,51.90
2023-03-03T12:01:58.629Z,53.30
2023-03-03T12:04:30.983Z,50.35
2023-03-03T12:07:18.580Z,51.63
2023-03-03T12:09:53.423Z,49.30
2023-03-03T12:12:25.209Z,50.92
2023-03-03T12:15:06.899Z,49.53
2023-03-03T12:18:03.057Z,50.05
2023-03-03T12:20:35.037Z,47.85
2023-03-03T12:23:16.661Z,54.90
2023-03-03T12:25:46.701Z,56.03
2023-03-03T12:28:19.205Z,53.13
2023-03-03T12:31:08.869Z,51.38
2023-03-03T12:33:49.787Z,50.97
2023-03-03T12:36:26.812Z,54.20
2023-03-03T12:38:57.793Z,51.35
2023-03-03T12:41:33.135Z,55.05
2023-03-03T12:44:05.009Z,58.65
2023-03-03T12:46:41.304Z,56.67
2023-03-03T12:49:10.864Z,43.05
2023-03-03T12:51:48.354Z,47.67
2023-03-03T12:54:46.320Z,47.63
2023-03-03T12:57:20.894Z,51.33
2023-03-03T13:00:02.209Z,52.60
2023-03-03T13:02:46.445Z,49.55
2023-03-03T13:05:21.940Z,51.88
2023-03-03T13:07:56.982Z,48.50
2023-03-03T13:10:29.148Z,55.60
2023-03-03T13:13:02.099Z,50.53
2023-03-03T13:15:34.967Z,48.83
2023-03-03T13:18:25.877Z,51.17
2023-03-03T13:21:01.644Z,47.05
2023-03-03T13:23:39.654Z,53.92
2023-03-03T13:26:12.123Z,50.85
2023-03-03T13:28:56.548Z,49.25
2023-03-03T13:31:26.211Z,51.03
2023-03-03T13:33:56.974Z,49.17
2023-03-03T13:36:31.479Z,56.22
2023-03-03T13:39:02.523Z,50.47
2023-03-03T13:41:34.815Z,49.55
2023-03-03T13:44:06.359Z,46.28
2023-03-03T13:46:38.833Z,48.22
2023-03-03T13:49:18.254Z,35.60
2023-03-03T13:51:56.001Z,42.97
2023-03-03T13:54:51.593Z,48.83
2023-03-03T13:57:46.606Z,47.30
2023-03-03T14:00:22.974Z,41.13
2023-03-03T14:03:02.588Z,52.63
2023-03-03T14:05:37.482Z,50.08
2023-03-03T14:08:12.101Z,48.35
2023-03-03T14:10:44.888Z,49.08
2023-03-03T14:13:14.725Z,51.10
2023-03-03T14:15:49.916Z,46.92
2023-03-03T14:18:26.023Z,49.90
2023-03-03T14:20:55.276Z,55.75
2023-03-03T14:23:29.917Z,50.08
2023-03-03T14:26:00.187Z,51.58
2023-03-03T14:28:30.929Z,50.28
2023-03-03T14:31:00.256Z,46.72
2023-03-03T14:33:32.323Z,47.92
2023-03-03T14:36:06.746Z,36.17
2023-03-03T14:38:42.697Z,51.13
2023-03-03T14:41:22.760Z,53.45
2023-03-03T14:43:58.873Z,50.25
2023-03-03T14:46:36.834Z,46.17
2023-03-03T14:49:07.824Z,46.40
2023-03-03T14:51:42.732Z,48.60
2023-03-03T14:54:20.936Z,48.47
2023-03-03T14:57:04.698Z,50.85
2023-03-03T14:59:33.153Z,49.88
2023-03-03T15:02:23.946Z,45.08
2023-03-03T15:07:29.787Z,44.47
2023-03-03T15:09:59.363Z,49.17
2023-03-03T15:12:36.127Z,44.65
2023-03-03T15:15:12.252Z,44.33
2023-03-03T15:17:42.719Z,40.13
2023-03-03T15:20:25.929Z,46.03
2023-03-03T15:23:05.193Z,46.03
2023-03-03T15:25:43.708Z,46.85
2023-03-03T15:28:37.353Z,48.17
2023-03-03T15:31:12.928Z,47.00
2023-03-03T15:33:46.984Z,44.80
2023-03-03T15:36:21.656Z,44.88
2023-03-03T15:38:57.130Z,52.25
2023-03-03T15:41:38.714Z,39.65
2023-03-03T15:44:22.316Z,52.65
2023-03-03T15:47:05.606Z,52.85
2023-03-03T15:49:53.896Z,54.88
2023-03-03T15:52:33.071Z,49.20
2023-03-03T15:55:11.724Z,50.13
2023-03-03T15:57:46.778Z,45.35
2023-03-03T16:00:26.794Z,45.58
2023-03-03T16:02:58.828Z,51.20
2023-03-03T16:05:30.552Z,44.83
2023-03-03T16:08:03.469Z,49.15
2023-03-03T16:10:38.874Z,49.35
2023-03-03T16:13:23.035Z,48.40
2023-03-03T16:15:57.704Z,52.33
2023-03-03T16:18:34.414Z,47.33
2023-03-03T16:21:14.399Z,49.17
2023-03-03T16:23:48.106Z,51.58
2023-03-03T16:26:27.945Z,52.90
2023-03-03T16:29:10.646Z,49.40
2023-03-03T16:31:43.049Z,48.03
2023-03-03T16:34:16.481Z,51.55
2023-03-03T16:36:58.577Z,52.63
2023-03-03T16:39:34.768Z,52.35
2023-03-03T16:42:06.220Z,55.45
2023-03-03T16:44:44.983Z,49.50
2023-03-03T16:47:23.410Z,51.80
2023-03-03T16:50:00.301Z,48.78
2023-03-03T16:52:34.577Z,48.92
2023-03-03T16:55:06.914Z,54.75
2023-03-03T16:57:47.151Z,53.35
2023-03-03T17:00:20.684Z,54.15
2023-03-03T17:03:22.324Z,49.47
2023-03-03T17:05:53.914Z,50.45
2023-03-03T17:08:44.360Z,52.20
2023-03-03T17:11:18.885Z,52.50
2023-03-03T17:14:04.215Z,50.25
2023-03-03T17:16:51.477Z,50.03
2023-03-03T17:19:32.080Z,53.70
2023-03-03T17:22:10.901Z,54.35
2023-03-03T17:24:47.006Z,51.50
2023-03-03T17:27:22.980Z,47.47
2023-03-03T17:29:57.608Z,56.80
2023-03-03T17:32:45.987Z,59.28
2023-03-03T17:35:28.062Z,54.20
2023-03-03T17:38:02.806Z,55.78
2023-03-03T17:40:47.432Z,51.80
2023-03-03T17:43:17.752Z,62.35
2023-03-03T17:45:47.604Z,57.50
2023-03-03T17:48:48.761Z,57.15
2023-03-03T17:51:25.625Z,58.50
2023-03-03T17:54:04.559Z,51.67
2023-03-03T17:56:34.662Z,56.90
2023-03-03T17:59:19.945Z,57.95
2023-03-03T18:02:05.758Z,55.30
2023-03-03T18:04:50.468Z,57.95
2023-03-03T18:07:29.588Z,57.20
2023-03-03T18:10:39.327Z,60.78
2023-03-03T18:13:21.609Z,59.58
2023-03-03T18:16:12.211Z,55.45
2023-03-03T18:21:16.615Z,59.88
2023-03-03T18:23:47.111Z,64.65
2023-03-03T18:26:35.364Z,58.00
2023-03-03T18:29:19.913Z,56.00
2023-03-03T18:32:03.712Z,59.63
2023-03-03T18:34:38.284Z,55.15
2023-03-03T18:37:12.216Z,56.25
2023-03-03T18:39:45.898Z,58.97
2023-03-03T18:42:36.110Z,55.17
2023-03-03T18:45:43.728Z,52.08
2023-03-03T18:48:12.576Z,55.88
2023-03-03T18:50:42.026Z,53.92
2023-03-03T18:53:23.570Z,61.00
2023-03-03T18:55:53.363Z,59.40
2023-03-03T18:58:36.728Z,54.15
2023-03-03T19:01:36.290Z,87.10
2023-03-03T19:04:23.099Z,149.57
2023-03-03T19:07:26.744Z,66.38
2023-03-03T19:09:58.351Z,57.15
2023-03-03T19:12:49.512Z,65.88
2023-03-03T19:15:48.055Z,59.13
2023-03-03T19:18:18.849Z,64.25
2023-03-03T19:20:49.521Z,55.88
2023-03-03T19:26:26.349Z,65.10
2023-03-03T19:29:00.992Z,54.88
2023-03-03T19:31:32.468Z,61.05
2023-03-03T19:34:06.323Z,55.80
2023-03-03T19:36:45.409Z,58.30
2023-03-03T19:39:25.654Z,51.67
2023-03-03T19:42:05.322Z,64.03
2023-03-03T19:44:49.748Z,60.20
2023-03-03T19:47:26.340Z,57.72
2023-03-03T19:50:04.731Z,63.78
2023-03-03T19:52:38.575Z,60.13
2023-03-03T19:55:24.711Z,61.22
2023-03-03T19:58:03.358Z,63.15
2023-03-03T20:00:37.030Z,67.18
2023-03-03T20:03:27.244Z,66.57
2023-03-03T20:05:58.368Z,67.95
2023-03-03T20:08:32.383Z,66.60
2023-03-03T20:11:04.503Z,67.35
2023-03-03T20:13:42.766Z,66.78
2023-03-03T20:16:22.590Z,70.43
2023-03-03T20:19:03.506Z,74.35
2023-03-03T20:21:34.224Z,72.10
2023-03-03T20:24:19.585Z,71.13
2023-03-03T20:26:57.758Z,70.68
2023-03-03T20:29:48.391Z,71.03
2023-03-03T20:32:24.423Z,71.03
2023-03-03T20:34:59.502Z,73.47
2023-03-03T20:37:34.888Z,78.80
2023-03-03T20:40:09.458Z,79.72
2023-03-03T20:42:45.422Z,81.70
2023-03-03T20:45:23.351Z,75.75
2023-03-03T20:48:03.663Z,81.72
2023-03-03T20:50:37.746Z,75.68
2023-03-03T20:53:15.038Z,75.25
2023-03-03T20:55:51.651Z,75.43
2023-03-03T20:58:23.425Z,76.60
2023-03-03T21:00:56.609Z,75.80
2023-03-03T21:03:34.118Z,80.05
2023-03-03T21:06:03.777Z,74.00
2023-03-03T21:08:53.220Z,81.78
2023-03-03T21:11:23.592Z,72.05
2023-03-03T21:13:54.143Z,81.70
2023-03-03T21:16:33.215Z,74.30
2023-03-03T21:19:04.326Z,82.90
2023-03-03T21:21:35.596Z,81.70
2023-03-03T21:24:04.009Z,81.00
2023-03-03T21:26:49.999Z,77.28
2023-03-03T21:29:20.464Z,70.35
2023-03-03T21:31:49.971Z,76.53
2023-03-03T21:34:25.181Z,79.97
2023-03-03T21:36:54.365Z,77.57
2023-03-03T21:39:31.446Z,81.82
2023-03-03T21:42:02.353Z,74.40
2023-03-03T21:44:32.960Z,78.25
2023-03-03T21:49:30.646Z,76.15
2023-03-03T21:51:59.147Z,81.55
2023-03-03T21:54:27.583Z,81.25
2023-03-03T21:56:55.886Z,73.10
2023-03-03T21:59:24.124Z,81.60
2023-03-03T22:01:52.343Z,80.43
2023-03-03T22:04:20.573Z,77.80
2023-03-03T22:06:50.696Z,84.85
2023-03-03T22:09:19.047Z,79.80
2023-03-03T22:11:47.570Z,80.20
2023-03-03T22:14:15.790Z,78.30
2023-03-03T22:16:44.042Z,79.55
2023-03-03T22:19:12.307Z,77.75
2023-03-03T22:21:40.801Z,74.75
2023-03-03T22:24:10.579Z,75.05
2023-03-03T22:26:38.973Z,74.03
2023-03-03T22:29:07.458Z,84.88
2023-03-03T22:31:35.762Z,79.65
2023-03-03T22:34:04.556Z,83.68
2023-03-03T22:36:32.783Z,80.40
2023-03-03T22:39:01.968Z,77.22
2023-03-03T22:41:31.558Z,84.47
2023-03-03T22:43:59.839Z,83.82
2023-03-03T22:46:28.119Z,81.95
2023-03-03T22:48:56.364Z,76.07
2023-03-03T22:51:26.237Z,81.07
2023-03-03T22:53:54.468Z,79.55
2023-03-03T22:56:22.736Z,86.15
2023-03-03T22:58:52.313Z,82.03
2023-03-03T23:01:20.555Z,82.13
2023-03-03T23:03:50.187Z,81.07
2023-03-03T23:06:18.484Z,93.33
2023-03-03T23:08:46.783Z,80.78
2023-03-03T23:11:15.057Z,86.20
2023-03-03T23:13:43.283Z,87.95
2023-03-03T23:16:12.896Z,80.20
2023-03-03T23:18:41.175Z,82.70
2023-03-03T23:21:09.502Z,82.32
2023-03-03T23:23:37.810Z,86.97
2023-03-03T23:26:06.251Z,86.20
2023-03-03T23:28:34.478Z,88.25
2023-03-03T23:31:02.760Z,79.68
2023-03-03T23:33:32.466Z,86.32
2023-03-03T23:36:00.755Z,78.67
2023-03-03T23:38:29.066Z,76.60
2023-03-03T23:40:57.336Z,87.88
2023-03-03T23:43:25.628Z,82.93
2023-03-03T23:45:53.854Z,85.38
2023-03-03T23:48:22.088Z,82.00
2023-03-03T23:50:51.717Z,83.45
2023-03-03T23:53:20.305Z,79.17
2023-03-03T23:55:48.602Z,84.90
2023-03-03T23:58:16.907Z,86.13
